北京 の空港の天気 - METARとTAF

北京首都国際空港 ( ZBAA / PEK ) - 中国 北京市
飛行場実況気象(Metar)
観測時間08/17 19:30 CST (08/17 11:30 UTC)
風向・風速北東 2m/s
視程10km以上
天気現象
なし
気温25℃
湿度41%
気圧1002hPa
METARZBAA 171130Z 04002MPS CAVOK 25/11 Q1002 NOSIG
過去の天気等 Google飛行場航空写真 Wunderground天気予報

過去48時間のMETAR

飛行場予報(TAF)
発表時間: 8/17 17:30 CST (8/17 09:30 UTC)
予報対象時間: 17日20時 CST ~ 18日20時 CST
風向・風速南 4m/s
視程10km以上
なし
TAF ZBAA 170930Z 1712/1812 18004MPS CAVOK TX32/1807Z TN19/1721Z